Time;durP1;ratioP1;P1;durP2;ratioP2;P2;SDS_P1;SDS_P2;PMS_P1;PMS_P2;Temp;Humidity;BMP_temperature;BMP_pressure;BME280_temperature;BME280_humidity;BME280_pressure;Samples;Min_cycle;Max_cycle;Signal;HPM_P1;HPM_P2
2021/04/03 00:00:51;;;;;;;26.33;11.55;;;4.60;99.90;;;;;;473472;251;27560;-72
2021/04/03 00:02:53;;;;;;;15.05;11.95;;;4.70;99.90;;;;;;473424;251;27541;-72
2021/04/03 00:04:54;;;;;;;14.77;11.77;;;4.70;99.90;;;;;;473400;251;27996;-72
2021/04/03 00:06:55;;;;;;;16.92;10.70;;;4.70;99.90;;;;;;473351;251;27544;-72
2021/04/03 00:08:57;;;;;;;20.08;11.12;;;4.70;99.90;;;;;;473036;250;27540;-70
2021/04/03 00:10:58;;;;;;;17.60;11.30;;;4.80;99.90;;;;;;472706;251;27536;-70
2021/04/03 00:12:59;;;;;;;20.58;12.10;;;4.70;99.90;;;;;;473396;251;27718;-70
2021/04/03 00:15:00;;;;;;;14.98;10.40;;;4.70;99.90;;;;;;473487;251;27961;-72
2021/04/03 00:17:02;;;;;;;15.18;9.40;;;4.70;99.90;;;;;;473399;250;28036;-72
2021/04/03 00:19:03;;;;;;;18.75;9.45;;;4.70;99.90;;;;;;473435;251;27529;-73
2021/04/03 00:21:04;;;;;;;16.17;9.35;;;4.70;99.90;;;;;;473459;251;27530;-72
2021/04/03 00:23:05;;;;;;;13.50;8.75;;;4.70;99.90;;;;;;473478;251;27674;-72
2021/04/03 00:25:07;;;;;;;16.70;8.25;;;4.70;99.90;;;;;;473300;251;27497;-72
2021/04/03 00:27:08;;;;;;;12.40;7.72;;;4.80;99.90;;;;;;472941;247;27562;-72
2021/04/03 00:29:09;;;;;;;11.40;7.70;;;4.80;99.90;;;;;;473422;251;28226;-72
2021/04/03 00:31:10;;;;;;;13.13;6.78;;;4.80;99.90;;;;;;473640;251;27934;-73
2021/04/03 00:33:12;;;;;;;11.73;6.50;;;4.80;99.90;;;;;;473614;251;27530;-72
2021/04/03 00:35:13;;;;;;;9.65;6.07;;;4.80;99.90;;;;;;473548;251;27492;-72
2021/04/03 00:37:14;;;;;;;13.07;6.72;;;4.80;99.90;;;;;;473492;251;27541;-73
2021/04/03 00:39:15;;;;;;;8.32;6.65;;;4.80;99.90;;;;;;473474;251;27617;-74
2021/04/03 00:41:17;;;;;;;9.55;6.30;;;4.90;99.90;;;;;;473484;251;27635;-72
2021/04/03 00:43:18;;;;;;;8.00;6.05;;;4.80;99.90;;;;;;473502;251;28013;-72
2021/04/03 00:45:19;;;;;;;7.97;5.45;;;4.90;99.90;;;;;;473503;251;28696;-72
2021/04/03 00:47:20;;;;;;;7.57;5.75;;;4.90;99.90;;;;;;473453;251;27625;-72
2021/04/03 00:49:22;;;;;;;7.20;4.90;;;4.90;99.90;;;;;;473474;251;27549;-72
2021/04/03 00:51:23;;;;;;;6.97;5.45;;;4.90;99.90;;;;;;473469;251;27497;-72
2021/04/03 00:53:24;;;;;;;7.97;4.87;;;4.80;99.90;;;;;;473491;251;27632;-72
2021/04/03 00:55:25;;;;;;;5.93;4.37;;;4.90;99.90;;;;;;473445;251;27599;-72
2021/04/03 00:57:27;;;;;;;7.05;4.80;;;4.90;99.90;;;;;;473461;251;27628;-72
2021/04/03 00:59:28;;;;;;;7.03;4.07;;;4.90;99.90;;;;;;473442;251;28747;-72
2021/04/03 01:01:29;;;;;;;5.28;4.37;;;4.90;99.90;;;;;;473373;251;27957;-72
2021/04/03 01:03:30;;;;;;;9.07;4.50;;;4.80;99.90;;;;;;473445;251;27631;-72
2021/04/03 01:05:32;;;;;;;7.47;3.90;;;4.90;99.90;;;;;;473442;251;27539;-72
2021/04/03 01:07:33;;;;;;;8.90;4.03;;;4.90;99.90;;;;;;473445;251;27609;-72
2021/04/03 01:09:34;;;;;;;6.30;3.37;;;4.90;99.90;;;;;;473432;251;27559;-73
2021/04/03 01:11:36;;;;;;;5.47;3.62;;;5.00;99.90;;;;;;473483;251;27542;-72
2021/04/03 01:13:37;;;;;;;9.00;3.97;;;5.00;99.90;;;;;;473433;251;27623;-72
2021/04/03 01:15:38;;;;;;;7.00;3.65;;;5.00;99.90;;;;;;473437;251;28224;-72
2021/04/03 01:17:39;;;;;;;4.45;3.40;;;5.00;99.90;;;;;;473426;251;28001;-72
2021/04/03 01:19:41;;;;;;;8.00;3.55;;;5.00;99.90;;;;;;473440;251;27541;-72
2021/04/03 01:21:42;;;;;;;3.80;3.30;;;5.00;99.90;;;;;;473434;251;27639;-72
2021/04/03 01:23:43;;;;;;;6.30;3.50;;;4.90;99.90;;;;;;473451;251;27554;-72
2021/04/03 01:25:45;;;;;;;8.18;3.90;;;4.90;99.90;;;;;;473421;251;27626;-72
2021/04/03 01:27:46;;;;;;;4.12;3.30;;;4.90;99.90;;;;;;473432;251;27536;-72
2021/04/03 01:29:47;;;;;;;6.47;3.37;;;4.90;99.90;;;;;;473524;251;27518;-72
2021/04/03 01:31:48;;;;;;;5.28;3.65;;;4.90;99.90;;;;;;473503;251;28095;-72
2021/04/03 01:33:49;;;;;;;4.53;3.40;;;4.90;99.90;;;;;;473470;251;28820;-72
2021/04/03 01:35:51;;;;;;;3.50;3.08;;;5.00;99.90;;;;;;473411;251;27540;-72
2021/04/03 01:37:52;;;;;;;10.25;2.95;;;4.90;99.90;;;;;;473405;251;27545;-72
2021/04/03 01:39:53;;;;;;;4.80;2.90;;;4.90;99.90;;;;;;473475;251;27613;-72
2021/04/03 01:41:54;;;;;;;8.10;3.40;;;5.00;99.90;;;;;;473460;251;27552;-72
2021/04/03 01:43:56;;;;;;;5.65;3.95;;;5.00;99.90;;;;;;473473;251;27538;-72
2021/04/03 01:45:57;;;;;;;4.57;3.10;;;5.00;99.90;;;;;;473442;251;27533;-72
2021/04/03 01:47:58;;;;;;;5.05;3.33;;;5.00;99.90;;;;;;473509;251;28049;-73
2021/04/03 01:49:59;;;;;;;4.35;3.60;;;5.00;99.90;;;;;;473553;251;28070;-72
2021/04/03 01:52:01;;;;;;;3.30;3.00;;;5.10;99.90;;;;;;473583;251;27992;-72
2021/04/03 01:54:02;;;;;;;5.55;3.72;;;5.00;99.90;;;;;;473584;251;27590;-72
2021/04/03 01:56:03;;;;;;;5.25;3.78;;;5.00;99.90;;;;;;473607;251;27580;-72
2021/04/03 01:58:04;;;;;;;6.22;3.83;;;5.00;99.90;;;;;;473602;251;27542;-72
2021/04/03 02:00:06;;;;;;;4.20;3.15;;;5.00;99.90;;;;;;473608;251;27490;-72
2021/04/03 02:02:07;;;;;;;4.50;2.97;;;5.00;99.90;;;;;;472810;251;27529;-72
2021/04/03 02:04:08;;;;;;;5.30;2.90;;;5.00;99.90;;;;;;472812;251;28140;-72
2021/04/03 02:06:09;;;;;;;4.72;3.12;;;5.00;99.90;;;;;;473161;251;27958;-72
2021/04/03 02:08:11;;;;;;;3.97;2.80;;;5.10;99.90;;;;;;473575;251;27537;-72
2021/04/03 02:10:12;;;;;;;6.97;3.40;;;5.00;99.90;;;;;;473506;251;27500;-72
2021/04/03 02:12:13;;;;;;;6.20;3.12;;;5.10;99.90;;;;;;473445;251;27569;-72
2021/04/03 02:14:14;;;;;;;4.37;3.42;;;5.00;99.90;;;;;;473415;251;27532;-72
2021/04/03 02:16:16;;;;;;;8.07;3.40;;;5.00;99.90;;;;;;473424;251;27569;-72
2021/04/03 02:18:17;;;;;;;7.75;3.33;;;5.00;99.90;;;;;;473477;251;27553;-72
2021/04/03 02:20:18;;;;;;;4.70;4.00;;;5.00;99.90;;;;;;473446;251;28860;-72
2021/04/03 02:22:19;;;;;;;6.30;3.70;;;4.90;99.90;;;;;;473457;251;28004;-72
2021/04/03 02:24:21;;;;;;;5.70;3.10;;;4.90;99.90;;;;;;473433;251;27529;-71
2021/04/03 02:26:22;;;;;;;4.10;3.65;;;4.90;99.90;;;;;;473427;251;27554;-72
2021/04/03 02:28:23;;;;;;;4.15;3.70;;;4.90;99.90;;;;;;473441;251;27599;-72
2021/04/03 02:30:25;;;;;;;4.87;3.87;;;4.80;99.90;;;;;;473445;250;27541;-73
2021/04/03 02:32:26;;;;;;;4.03;3.72;;;4.80;99.90;;;;;;473440;251;27530;-72
2021/04/03 02:34:27;;;;;;;5.60;3.60;;;4.80;99.90;;;;;;473449;251;28074;-72
2021/04/03 02:36:28;;;;;;;5.60;3.62;;;4.70;99.90;;;;;;473456;251;28095;-73
2021/04/03 02:38:30;;;;;;;3.90;3.30;;;4.70;99.90;;;;;;473500;251;28138;-72
2021/04/03 02:40:31;;;;;;;7.20;4.12;;;4.70;99.90;;;;;;473466;251;27613;-72
2021/04/03 02:42:32;;;;;;;4.10;3.70;;;4.70;99.90;;;;;;473444;251;27658;-72
2021/04/03 02:44:33;;;;;;;7.75;4.50;;;4.70;99.90;;;;;;473438;251;27542;-72
2021/04/03 02:46:35;;;;;;;9.02;4.60;;;4.70;99.90;;;;;;473419;251;27550;-73
2021/04/03 02:48:36;;;;;;;9.07;3.70;;;4.70;99.90;;;;;;473444;251;27633;-72
2021/04/03 02:50:37;;;;;;;5.82;4.57;;;4.70;99.90;;;;;;473413;251;27554;-72
2021/04/03 02:52:38;;;;;;;6.10;4.40;;;4.80;99.90;;;;;;473388;251;28028;-73
2021/04/03 02:54:40;;;;;;;6.10;4.32;;;4.70;99.90;;;;;;473421;251;28013;-72
2021/04/03 02:56:41;;;;;;;5.85;5.10;;;4.80;99.90;;;;;;473485;251;27548;-73
2021/04/03 02:58:42;;;;;;;7.80;4.90;;;4.80;99.90;;;;;;473562;251;27539;-72
2021/04/03 03:00:43;;;;;;;14.60;6.18;;;4.80;99.90;;;;;;473576;251;27627;-72
2021/04/03 03:02:45;;;;;;;9.10;5.30;;;4.80;99.90;;;;;;473510;251;28064;-72
2021/04/03 03:04:46;;;;;;;4.72;4.30;;;4.90;99.90;;;;;;473506;251;27509;-72
2021/04/03 03:06:47;;;;;;;9.63;5.05;;;4.90;99.90;;;;;;473460;251;27990;-73
2021/04/03 03:08:48;;;;;;;8.70;4.87;;;4.90;99.90;;;;;;473460;251;28070;-72
2021/04/03 03:10:50;;;;;;;7.37;5.28;;;4.90;99.90;;;;;;473445;251;27559;-72
2021/04/03 03:12:51;;;;;;;10.48;4.85;;;4.90;99.90;;;;;;473510;251;27525;-73
2021/04/03 03:14:52;;;;;;;7.00;4.90;;;4.90;99.90;;;;;;473600;251;27497;-73
2021/04/03 03:16:53;;;;;;;6.35;4.65;;;4.80;99.90;;;;;;473642;251;27537;-72
2021/04/03 03:18:55;;;;;;;8.45;4.97;;;4.90;99.90;;;;;;473626;251;27481;-72
2021/04/03 03:20:56;;;;;;;9.98;5.07;;;4.90;99.90;;;;;;473533;251;27629;-72
2021/04/03 03:22:57;;;;;;;9.07;5.10;;;4.90;99.90;;;;;;473441;251;28082;-73
2021/04/03 03:24:58;;;;;;;6.25;5.00;;;4.90;99.90;;;;;;473457;251;28028;-72
2021/04/03 03:27:00;;;;;;;5.62;4.60;;;4.90;99.90;;;;;;473463;251;27568;-72
2021/04/03 03:29:01;;;;;;;11.52;4.95;;;4.90;99.90;;;;;;473443;251;27662;-72
2021/04/03 03:31:02;;;;;;;15.88;4.82;;;4.90;99.90;;;;;;473406;251;27649;-73
2021/04/03 03:33:03;;;;;;;7.68;4.70;;;4.90;99.90;;;;;;473475;251;27536;-71
2021/04/03 03:35:05;;;;;;;6.32;5.10;;;4.90;99.90;;;;;;473460;251;27578;-72
2021/04/03 03:37:06;;;;;;;7.87;5.30;;;4.90;99.90;;;;;;473490;251;28080;-72
2021/04/03 03:39:07;;;;;;;7.85;4.95;;;4.80;99.90;;;;;;473468;251;28131;-72
2021/04/03 03:41:09;;;;;;;6.37;4.60;;;4.80;99.90;;;;;;473479;251;27640;-72
2021/04/03 03:43:16;;;;;;;8.98;5.25;;;4.90;99.90;;;;;;473496;251;27529;-72
2021/04/03 03:45:11;;;;;;;8.98;5.25;;;4.80;99.90;;;;;;473173;251;27497;-72
2021/04/03 03:47:12;;;;;;;6.55;4.40;;;4.90;99.90;;;;;;473570;251;27596;-72
2021/04/03 03:49:14;;;;;;;8.25;5.20;;;4.90;99.90;;;;;;473579;251;27598;-72
2021/04/03 03:51:15;;;;;;;8.30;5.00;;;4.80;99.90;;;;;;473565;251;27599;-72
2021/04/03 03:53:16;;;;;;;6.28;5.35;;;4.80;99.90;;;;;;473601;251;28054;-72
2021/04/03 03:55:17;;;;;;;8.45;4.43;;;4.80;99.90;;;;;;473547;251;28183;-72
2021/04/03 03:57:19;;;;;;;15.95;5.60;;;4.80;99.90;;;;;;473567;251;27545;-72
2021/04/03 03:59:20;;;;;;;6.50;4.40;;;4.80;99.90;;;;;;473555;251;27510;-72
2021/04/03 04:01:21;;;;;;;10.05;4.78;;;4.70;99.90;;;;;;473480;251;27524;-72
2021/04/03 04:03:22;;;;;;;10.95;4.65;;;4.70;99.90;;;;;;473350;251;27648;-72
2021/04/03 04:05:24;;;;;;;8.55;5.00;;;4.70;99.90;;;;;;473457;251;27561;-72
2021/04/03 04:07:25;;;;;;;6.72;4.50;;;4.70;99.90;;;;;;473425;251;28007;-73
2021/04/03 04:09:27;;;;;;;11.23;4.60;;;4.70;99.90;;;;;;473421;251;28083;-72
2021/04/03 04:11:27;;;;;;;8.88;5.05;;;4.70;99.90;;;;;;473402;251;27839;-72
2021/04/03 04:13:29;;;;;;;7.12;4.55;;;4.70;99.90;;;;;;473454;251;27549;-72
2021/04/03 04:15:30;;;;;;;6.72;4.80;;;4.70;99.90;;;;;;473492;251;27640;-72
2021/04/03 04:17:31;;;;;;;6.28;4.43;;;4.70;99.90;;;;;;473553;251;27523;-72
2021/04/03 04:19:32;;;;;;;7.97;4.90;;;4.70;99.90;;;;;;473497;251;27605;-72
2021/04/03 04:21:34;;;;;;;9.95;5.18;;;4.70;99.90;;;;;;473585;251;27642;-72
2021/04/03 04:23:35;;;;;;;7.72;4.60;;;4.70;99.90;;;;;;473607;251;27965;-72
2021/04/03 04:25:36;;;;;;;6.43;4.68;;;4.70;99.90;;;;;;473630;251;28092;-72
2021/04/03 04:27:37;;;;;;;9.43;4.90;;;4.70;99.90;;;;;;473646;251;27560;-72
2021/04/03 04:29:39;;;;;;;13.57;5.40;;;4.70;99.90;;;;;;473611;251;27558;-72
2021/04/03 04:31:40;;;;;;;10.85;5.28;;;4.80;99.90;;;;;;473620;251;27551;-72
2021/04/03 04:33:41;;;;;;;7.90;4.75;;;4.80;99.90;;;;;;473663;251;27496;-72
2021/04/03 04:35:42;;;;;;;6.55;5.12;;;4.70;99.90;;;;;;473609;251;27597;-72
2021/04/03 04:37:44;;;;;;;6.95;4.35;;;4.80;99.90;;;;;;473588;251;27517;-72
2021/04/03 04:39:45;;;;;;;10.25;5.00;;;4.80;99.90;;;;;;473460;251;27997;-72
2021/04/03 04:41:46;;;;;;;7.95;4.60;;;4.80;99.90;;;;;;473512;251;28185;-73
2021/04/03 04:43:47;;;;;;;10.77;5.35;;;4.70;99.90;;;;;;473518;251;27574;-72
2021/04/03 04:45:49;;;;;;;11.10;5.60;;;4.80;99.90;;;;;;473536;251;27518;-71
2021/04/03 04:47:50;;;;;;;8.82;4.97;;;4.80;99.90;;;;;;473481;251;27655;-72
2021/04/03 04:49:51;;;;;;;10.07;5.30;;;4.80;99.90;;;;;;473467;251;27534;-72
2021/04/03 04:51:52;;;;;;;8.10;5.10;;;4.80;99.90;;;;;;473494;251;27990;-72
2021/04/03 04:53:54;;;;;;;6.78;4.60;;;4.80;99.90;;;;;;473491;251;28054;-72
2021/04/03 04:55:55;;;;;;;8.18;4.85;;;4.80;99.90;;;;;;473461;251;27533;-72
2021/04/03 04:57:56;;;;;;;9.45;4.40;;;4.80;99.90;;;;;;473472;251;27631;-73
2021/04/03 04:59:58;;;;;;;7.82;4.93;;;4.80;99.90;;;;;;473460;251;27600;-71
2021/04/03 05:01:59;;;;;;;6.25;4.43;;;4.70;99.90;;;;;;473485;251;27865;-73
2021/04/03 05:04:00;;;;;;;7.65;4.70;;;4.80;99.90;;;;;;473447;251;27576;-72
2021/04/03 05:06:01;;;;;;;6.65;4.20;;;4.70;99.90;;;;;;473417;251;27556;-72
2021/04/03 05:08:03;;;;;;;6.75;4.95;;;4.70;99.90;;;;;;473458;251;28005;-72
2021/04/03 05:10:04;;;;;;;7.70;4.90;;;4.80;99.90;;;;;;473449;251;28098;-72
2021/04/03 05:12:05;;;;;;;8.68;4.62;;;4.80;99.90;;;;;;473456;251;27649;-72
2021/04/03 05:14:06;;;;;;;8.50;5.40;;;4.70;99.90;;;;;;473490;251;27560;-72
2021/04/03 05:16:08;;;;;;;9.77;5.43;;;4.80;99.90;;;;;;473557;251;27660;-72
2021/04/03 05:18:09;;;;;;;9.82;4.95;;;4.80;99.90;;;;;;473558;251;27632;-72
2021/04/03 05:20:10;;;;;;;6.07;5.00;;;4.80;99.90;;;;;;473527;251;27608;-72
2021/04/03 05:22:12;;;;;;;8.10;4.87;;;4.80;99.90;;;;;;473454;251;27911;-72
2021/04/03 05:24:13;;;;;;;7.45;4.93;;;4.80;99.90;;;;;;473435;251;28007;-72
2021/04/03 05:26:14;;;;;;;8.13;5.28;;;4.90;99.90;;;;;;473445;251;28008;-72
2021/04/03 05:28:15;;;;;;;7.30;4.90;;;4.80;99.90;;;;;;473428;251;27560;-72
2021/04/03 05:30:16;;;;;;;8.35;4.72;;;4.80;99.90;;;;;;473453;251;27541;-73
2021/04/03 05:32:18;;;;;;;8.85;5.62;;;4.80;99.90;;;;;;473459;249;27517;-72
2021/04/03 05:34:19;;;;;;;6.97;4.60;;;4.90;99.90;;;;;;473428;251;27572;-72
2021/04/03 05:36:20;;;;;;;9.48;5.28;;;4.80;99.90;;;;;;473435;251;27550;-72
2021/04/03 05:38:21;;;;;;;10.25;5.28;;;4.80;99.90;;;;;;473442;251;27536;-72
2021/04/03 05:40:23;;;;;;;8.63;5.32;;;4.80;99.90;;;;;;473491;251;28096;-73
2021/04/03 05:42:24;;;;;;;7.80;5.18;;;4.80;99.90;;;;;;473503;251;27602;-72
2021/04/03 05:44:25;;;;;;;5.15;4.35;;;4.80;99.90;;;;;;473445;251;27538;-72
2021/04/03 05:46:26;;;;;;;6.75;4.87;;;4.80;99.90;;;;;;473458;251;27533;-73
2021/04/03 05:48:28;;;;;;;13.57;5.53;;;4.70;99.90;;;;;;473489;251;27509;-72
2021/04/03 05:50:29;;;;;;;9.73;4.90;;;4.70;99.90;;;;;;473258;251;27636;-73
2021/04/03 05:52:30;;;;;;;7.82;4.80;;;4.70;99.90;;;;;;473017;251;27618;-72
2021/04/03 05:54:31;;;;;;;8.35;5.28;;;4.70;99.90;;;;;;473157;251;28363;-72
2021/04/03 05:56:33;;;;;;;10.02;5.50;;;4.80;99.90;;;;;;473320;247;28027;-73
2021/04/03 05:58:36;;;;;;;7.32;5.10;;;4.80;99.90;;;;;;473631;251;27615;-72
2021/04/03 06:00:35;;;;;;;8.02;4.80;;;4.90;99.90;;;;;;473509;250;27625;-72
2021/04/03 06:02:38;;;;;;;9.27;5.40;;;5.00;99.90;;;;;;473644;251;27502;-71
2021/04/03 06:04:38;;;;;;;8.88;5.30;;;5.00;99.90;;;;;;473463;251;27524;-73
2021/04/03 06:06:39;;;;;;;9.13;4.82;;;5.10;99.90;;;;;;473547;251;27624;-72
2021/04/03 06:08:40;;;;;;;8.18;5.30;;;5.10;99.90;;;;;;473490;251;28121;-72
2021/04/03 06:10:42;;;;;;;7.75;4.97;;;4.90;99.90;;;;;;473472;251;28052;-72
2021/04/03 06:12:43;;;;;;;8.27;5.32;;;5.00;99.90;;;;;;473434;251;27558;-72
2021/04/03 06:14:44;;;;;;;15.23;5.68;;;5.00;99.90;;;;;;473396;251;27537;-72
2021/04/03 06:16:45;;;;;;;10.95;5.65;;;5.00;99.90;;;;;;473371;251;27521;-72
2021/04/03 06:18:47;;;;;;;12.07;5.25;;;5.10;99.90;;;;;;473420;251;27521;-72
2021/04/03 06:20:48;;;;;;;12.10;5.70;;;5.20;99.90;;;;;;473415;251;28021;-72
2021/04/03 06:22:49;;;;;;;7.10;5.10;;;5.20;99.90;;;;;;473443;251;28047;-73
2021/04/03 06:24:50;;;;;;;9.55;5.70;;;5.30;99.90;;;;;;473416;251;27533;-73
2021/04/03 06:26:52;;;;;;;8.25;5.03;;;5.30;99.90;;;;;;473450;251;27621;-72
2021/04/03 06:28:53;;;;;;;11.05;5.47;;;5.40;99.90;;;;;;473461;251;27544;-72
2021/04/03 06:30:54;;;;;;;8.45;5.60;;;5.40;99.90;;;;;;473428;251;27539;-73
2021/04/03 06:32:55;;;;;;;10.57;5.90;;;5.50;99.90;;;;;;473421;251;27562;-72
2021/04/03 06:34:57;;;;;;;8.10;5.18;;;5.60;99.90;;;;;;473443;251;28090;-72
2021/04/03 06:36:58;;;;;;;11.55;6.10;;;5.60;99.90;;;;;;473435;251;27548;-72
2021/04/03 06:39:00;;;;;;;8.80;5.62;;;5.60;99.90;;;;;;473453;251;27539;-72
2021/04/03 06:41:00;;;;;;;9.60;6.40;;;5.70;99.90;;;;;;473406;251;27534;-76
2021/04/03 06:43:02;;;;;;;8.73;5.95;;;5.70;99.90;;;;;;473464;251;28893;-72
2021/04/03 06:45:03;;;;;;;10.43;6.57;;;5.60;99.90;;;;;;473464;251;27540;-72
2021/04/03 06:47:04;;;;;;;11.43;6.20;;;5.60;99.90;;;;;;473483;251;27842;-72
2021/04/03 06:49:05;;;;;;;12.68;6.50;;;5.60;99.90;;;;;;473494;251;28472;-73
2021/04/03 06:51:07;;;;;;;11.35;6.95;;;5.70;99.90;;;;;;473488;251;28110;-77
2021/04/03 06:53:08;;;;;;;12.60;7.40;;;5.50;99.90;;;;;;473359;251;27640;-72
2021/04/03 06:55:09;;;;;;;14.50;7.95;;;5.50;99.90;;;;;;473424;251;27545;-72
2021/04/03 06:57:10;;;;;;;10.82;8.40;;;5.60;99.90;;;;;;473519;251;27588;-72
2021/04/03 06:59:12;;;;;;;14.57;7.63;;;5.60;99.90;;;;;;473510;251;27538;-72
2021/04/03 07:01:13;;;;;;;14.10;7.70;;;5.70;99.90;;;;;;473497;251;28472;-72
2021/04/03 07:03:14;;;;;;;14.17;8.73;;;5.70;99.90;;;;;;473429;251;28031;-72
2021/04/03 07:05:15;;;;;;;15.27;8.65;;;5.90;99.90;;;;;;473528;251;28735;-72
2021/04/03 07:07:17;;;;;;;15.25;8.07;;;5.60;99.90;;;;;;473651;251;27563;-72
2021/04/03 07:09:18;;;;;;;22.13;8.83;;;5.70;99.90;;;;;;473599;251;27565;-72
2021/04/03 07:11:19;;;;;;;14.20;8.45;;;5.40;99.90;;;;;;473242;251;28890;-72
2021/04/03 07:13:21;;;;;;;19.40;9.38;;;5.20;99.90;;;;;;472994;251;28343;-72
2021/04/03 07:15:22;;;;;;;17.35;9.40;;;5.40;99.90;;;;;;472948;251;28073;-73
2021/04/03 07:17:23;;;;;;;11.98;8.30;;;5.30;99.90;;;;;;473519;251;27580;-72
2021/04/03 07:19:27;;;;;;;18.85;8.68;;;5.50;99.90;;;;;;473557;251;27528;-72
2021/04/03 07:21:26;;;;;;;16.00;9.00;;;5.50;99.90;;;;;;473449;250;27900;-74
2021/04/03 07:23:27;;;;;;;20.27;10.20;;;5.30;99.90;;;;;;473588;251;27540;-72
2021/04/03 07:25:28;;;;;;;16.00;8.77;;;5.30;99.90;;;;;;473569;251;29372;-77
2021/04/03 07:27:29;;;;;;;16.23;9.10;;;5.50;99.90;;;;;;473524;251;29356;-72
2021/04/03 07:29:31;;;;;;;14.80;8.70;;;5.60;99.90;;;;;;473492;251;28884;-72
2021/04/03 07:31:32;;;;;;;18.13;8.63;;;5.70;99.90;;;;;;473416;251;29017;-72
2021/04/03 07:33:33;;;;;;;17.67;8.77;;;5.60;99.90;;;;;;473435;251;28682;-72
2021/04/03 07:35:34;;;;;;;20.02;9.27;;;5.60;99.90;;;;;;473475;251;28215;-72
2021/04/03 07:37:36;;;;;;;15.20;8.77;;;5.30;99.90;;;;;;473458;251;27534;-73
2021/04/03 07:39:37;;;;;;;16.30;8.97;;;5.40;99.90;;;;;;473446;251;27982;-72
2021/04/03 07:41:38;;;;;;;16.63;8.60;;;5.60;99.90;;;;;;473435;251;29430;-72
2021/04/03 07:43:40;;;;;;;17.57;8.30;;;5.60;99.90;;;;;;473446;251;28971;-72
2021/04/03 07:45:42;;;;;;;22.60;8.60;;;5.90;99.90;;;;;;473419;251;28956;-72
2021/04/03 07:47:42;;;;;;;12.60;8.63;;;5.90;99.90;;;;;;473379;251;27537;-72
2021/04/03 07:49:43;;;;;;;14.00;7.23;;;6.00;99.90;;;;;;473444;251;28113;-72
2021/04/03 07:51:45;;;;;;;14.33;7.90;;;6.00;99.90;;;;;;473448;251;28011;-72
2021/04/03 07:53:46;;;;;;;10.87;7.23;;;5.90;99.90;;;;;;473511;251;27883;-72
2021/04/03 07:55:47;;;;;;;20.37;7.90;;;6.00;99.90;;;;;;473444;251;28048;-72
2021/04/03 07:57:48;;;;;;;11.30;7.07;;;5.90;99.90;;;;;;473423;251;27675;-73
2021/04/03 07:59:51;;;;;;;22.60;7.77;;;6.10;99.90;;;;;;473423;250;28361;-72
2021/04/03 08:01:51;;;;;;;15.63;8.00;;;6.00;99.90;;;;;;473235;250;28466;-73
2021/04/03 08:03:52;;;;;;;12.33;7.03;;;5.90;99.90;;;;;;473287;251;28508;-73
2021/04/03 08:05:53;;;;;;;17.60;7.13;;;6.00;99.90;;;;;;473293;251;28182;-72
2021/04/03 08:07:54;;;;;;;18.80;7.15;;;6.00;99.90;;;;;;473453;251;27885;-72
2021/04/03 08:09:56;;;;;;;20.50;8.30;;;5.80;99.90;;;;;;473467;251;27529;-72
2021/04/03 08:11:57;;;;;;;15.87;7.13;;;5.60;99.90;;;;;;473500;251;27982;-72
2021/04/03 08:13:58;;;;;;;11.02;6.55;;;5.80;99.90;;;;;;473463;251;28224;-73
2021/04/03 08:15:59;;;;;;;11.87;7.07;;;6.00;99.90;;;;;;473357;251;27616;-72
2021/04/03 08:18:01;;;;;;;14.13;7.20;;;6.10;99.90;;;;;;473297;251;28127;-72
2021/04/03 08:20:02;;;;;;;10.33;6.80;;;6.30;99.90;;;;;;473368;251;29324;-73
2021/04/03 08:22:03;;;;;;;9.73;5.93;;;6.10;99.90;;;;;;473397;251;28202;-73
2021/04/03 08:24:04;;;;;;;10.50;6.50;;;6.30;99.90;;;;;;473407;251;28500;-72
2021/04/03 08:26:06;;;;;;;13.73;8.33;;;6.20;99.90;;;;;;473459;251;28173;-73
2021/04/03 08:28:07;;;;;;;8.50;6.03;;;6.00;99.90;;;;;;473431;251;27733;-73
2021/04/03 08:30:21;;;;;;;17.37;7.10;;;6.00;99.90;;;;;;473449;251;28015;-72
2021/04/03 08:32:09;;;;;;;12.37;6.87;;;6.00;99.90;;;;;;472739;250;27656;-72
2021/04/03 08:34:11;;;;;;;17.83;7.40;;;6.00;99.90;;;;;;473590;251;28306;-73
2021/04/03 08:36:12;;;;;;;7.73;5.63;;;6.10;99.90;;;;;;473610;251;28338;-72
2021/04/03 08:38:13;;;;;;;11.60;6.20;;;6.30;99.90;;;;;;473606;251;27886;-73
2021/04/03 08:40:14;;;;;;;11.70;6.53;;;6.30;99.90;;;;;;473621;251;28576;-73
2021/04/03 08:42:16;;;;;;;12.53;5.87;;;6.40;99.90;;;;;;473630;251;28762;-73
2021/04/03 08:44:17;;;;;;;14.77;6.27;;;6.30;99.90;;;;;;473636;251;28010;-73
2021/04/03 08:46:18;;;;;;;12.63;7.67;;;6.30;99.90;;;;;;473579;251;30080;-72
2021/04/03 08:48:19;;;;;;;12.40;7.73;;;6.00;99.90;;;;;;473430;251;28182;-73
2021/04/03 08:50:21;;;;;;;9.90;6.67;;;6.10;99.90;;;;;;473354;251;28572;-74
2021/04/03 08:52:22;;;;;;;11.37;5.67;;;6.00;99.90;;;;;;473494;251;28311;-72
2021/04/03 08:54:23;;;;;;;10.93;5.90;;;6.20;99.90;;;;;;473471;251;27860;-72
2021/04/03 08:56:24;;;;;;;11.03;6.33;;;6.30;99.90;;;;;;473445;251;27994;-73
2021/04/03 08:58:26;;;;;;;9.23;5.13;;;6.30;99.90;;;;;;473497;251;28045;-72
2021/04/03 09:00:27;;;;;;;12.17;6.10;;;6.30;99.90;;;;;;473544;251;28587;-72
2021/04/03 09:02:28;;;;;;;11.60;6.20;;;6.40;99.90;;;;;;473538;251;28014;-72
2021/04/03 09:04:29;;;;;;;14.20;5.80;;;6.30;99.90;;;;;;473460;251;27773;-72
2021/04/03 09:06:31;;;;;;;15.23;6.93;;;6.30;99.90;;;;;;473498;251;27858;-72
2021/04/03 09:08:32;;;;;;;13.17;5.67;;;6.50;99.90;;;;;;473601;251;28218;-73
2021/04/03 09:10:33;;;;;;;9.10;5.87;;;6.60;99.90;;;;;;473595;251;28475;-73
2021/04/03 09:12:35;;;;;;;12.00;5.83;;;6.40;99.90;;;;;;473643;251;29114;-73
2021/04/03 09:14:36;;;;;;;10.43;5.70;;;6.60;99.90;;;;;;473569;251;28187;-72
2021/04/03 09:16:37;;;;;;;10.90;5.00;;;6.60;99.90;;;;;;473540;251;28376;-73
2021/04/03 09:18:38;;;;;;;11.73;6.07;;;6.70;99.90;;;;;;473513;251;28027;-73
2021/04/03 09:20:40;;;;;;;6.40;4.90;;;7.00;99.90;;;;;;473417;251;27900;-73
2021/04/03 09:22:41;;;;;;;10.47;5.23;;;7.00;99.90;;;;;;473405;251;27757;-72
2021/04/03 09:24:42;;;;;;;10.73;5.40;;;6.70;99.90;;;;;;473496;251;28003;-73
2021/04/03 09:26:43;;;;;;;11.60;5.27;;;6.70;99.90;;;;;;473448;251;27779;-72
2021/04/03 09:28:45;;;;;;;7.80;5.00;;;6.80;99.90;;;;;;473435;251;28097;-73
2021/04/03 09:30:46;;;;;;;7.30;4.43;;;7.00;99.90;;;;;;473463;251;28091;-73
2021/04/03 09:32:47;;;;;;;6.50;4.53;;;7.10;99.90;;;;;;473479;251;27888;-73
2021/04/03 09:34:48;;;;;;;8.73;4.80;;;7.20;99.90;;;;;;473485;251;28133;-73
2021/04/03 09:36:50;;;;;;;7.93;4.60;;;7.00;99.90;;;;;;473472;251;28021;-73
2021/04/03 09:38:51;;;;;;;7.07;4.03;;;6.80;99.90;;;;;;473495;251;28081;-72
2021/04/03 09:40:52;;;;;;;8.73;4.40;;;6.90;99.90;;;;;;473478;251;28402;-72
2021/04/03 09:42:53;;;;;;;8.77;4.07;;;7.20;99.90;;;;;;473630;251;28608;-73
2021/04/03 09:44:55;;;;;;;7.87;4.00;;;7.30;99.90;;;;;;473560;251;28300;-72
2021/04/03 09:46:56;;;;;;;6.00;3.70;;;7.10;99.90;;;;;;473439;251;28455;-72
2021/04/03 09:48:57;;;;;;;11.20;4.60;;;7.20;99.90;;;;;;473541;251;28546;-73
2021/04/03 09:50:58;;;;;;;8.00;4.33;;;7.20;99.90;;;;;;473616;251;27627;-72
2021/04/03 09:53:00;;;;;;;11.10;4.10;;;7.20;99.90;;;;;;473599;251;28026;-73
2021/04/03 09:55:01;;;;;;;4.60;3.40;;;7.20;99.90;;;;;;473551;251;27995;-72
2021/04/03 09:57:02;;;;;;;10.23;4.30;;;7.30;99.90;;;;;;473495;251;27865;-73
2021/04/03 09:59:03;;;;;;;4.77;3.37;;;7.50;99.90;;;;;;473441;251;27903;-73
2021/04/03 10:01:05;;;;;;;8.70;3.90;;;7.40;99.90;;;;;;473448;251;27640;-72
2021/04/03 10:03:06;;;;;;;10.30;3.90;;;7.30;99.90;;;;;;473416;251;28036;-72
2021/04/03 10:05:07;;;;;;;5.87;3.70;;;7.50;99.90;;;;;;473427;251;27870;-72
2021/04/03 10:07:08;;;;;;;7.47;4.23;;;7.50;99.90;;;;;;473390;251;27878;-72
2021/04/03 10:09:10;;;;;;;8.80;3.53;;;7.70;99.70;;;;;;473377;251;27998;-72
2021/04/03 10:11:11;;;;;;;6.70;3.70;;;8.00;99.40;;;;;;472865;251;27894;-72
2021/04/03 10:13:12;;;;;;;9.67;4.10;;;8.10;99.20;;;;;;473142;251;28451;-73
2021/04/03 10:15:13;;;;;;;8.13;4.17;;;8.10;97.90;;;;;;473423;251;28504;-73
2021/04/03 10:17:14;;;;;;;9.90;4.20;;;8.10;98.10;;;;;;473438;251;28555;-73
2021/04/03 10:19:16;;;;;;;6.80;3.53;;;8.10;98.30;;;;;;473498;251;28850;-73
2021/04/03 10:21:17;;;;;;;6.33;4.03;;;7.90;98.30;;;;;;473465;251;28435;-72
2021/04/03 10:23:18;;;;;;;9.50;4.00;;;8.00;98.60;;;;;;473451;251;28279;-73
2021/04/03 10:25:21;;;;;;;9.33;4.23;;;8.30;99.90;;;;;;473441;251;28110;-73
2021/04/03 10:27:21;;;;;;;9.30;3.87;;;8.70;99.70;;;;;;473580;251;27650;-73
2021/04/03 10:29:22;;;;;;;8.33;3.67;;;8.80;99.90;;;;;;473447;251;28088;-73
2021/04/03 10:31:23;;;;;;;6.23;4.00;;;8.50;98.70;;;;;;473488;251;28017;-72
2021/04/03 10:33:24;;;;;;;7.47;4.17;;;8.20;99.90;;;;;;473431;251;28019;-73
2021/04/03 10:35:26;;;;;;;8.77;4.27;;;8.20;99.90;;;;;;473467;251;27882;-72